Time;durP1;ratioP1;P1;durP2;ratioP2;P2;SDS_P1;SDS_P2;PMS_P1;PMS_P2;Temp;Humidity;BMP_temperature;BMP_pressure;BME280_temperature;BME280_humidity;BME280_pressure;Samples;Min_cycle;Max_cycle;Signal;HPM_P1;HPM_P2
2023/07/01 00:00:08;;;;;;;2.40;0.97;;;13.30;59.00;;;;;;4991773;28;20189;-66
2023/07/01 00:02:36;;;;;;;1.60;1.00;;;13.50;58.20;;;;;;4987743;28;20186;-67
2023/07/01 00:05:07;;;;;;;0.90;0.90;;;13.50;57.60;;;;;;4994187;28;20222;-65
2023/07/01 00:07:35;;;;;;;1.40;1.20;;;13.60;57.00;;;;;;4989198;28;20277;-66
2023/07/01 00:10:03;;;;;;;1.30;0.97;;;13.70;57.20;;;;;;4989104;28;20696;-68
2023/07/01 00:12:30;;;;;;;1.17;0.90;;;13.80;56.30;;;;;;4991974;28;20209;-65
2023/07/01 00:14:57;;;;;;;1.73;1.00;;;13.90;56.20;;;;;;4992585;28;20198;-70
2023/07/01 00:17:25;;;;;;;0.80;0.80;;;13.90;56.30;;;;;;4989144;28;20182;-66
2023/07/01 00:19:53;;;;;;;0.90;0.70;;;14.00;56.10;;;;;;4992181;28;20209;-65
2023/07/01 00:22:20;;;;;;;1.03;0.80;;;14.10;55.60;;;;;;4994185;28;20718;-65
2023/07/01 00:24:47;;;;;;;1.23;0.70;;;14.10;55.50;;;;;;4993114;28;20217;-65
2023/07/01 00:27:15;;;;;;;0.90;0.90;;;14.30;55.70;;;;;;4993228;28;20189;-66
2023/07/01 00:29:43;;;;;;;0.73;0.73;;;14.30;55.30;;;;;;4992011;28;20190;-68
2023/07/01 00:32:11;;;;;;;0.93;0.93;;;14.30;55.10;;;;;;4983009;28;20170;-66
2023/07/01 00:34:38;;;;;;;0.80;0.80;;;14.40;54.90;;;;;;4987821;28;20200;-67
2023/07/01 00:37:06;;;;;;;0.80;0.80;;;14.40;54.80;;;;;;4992535;28;20640;-68
2023/07/01 00:39:33;;;;;;;1.23;1.10;;;14.60;54.60;;;;;;4986671;28;20182;-66
2023/07/01 00:42:00;;;;;;;1.57;0.87;;;14.70;54.50;;;;;;4986840;28;20178;-66
2023/07/01 00:44:27;;;;;;;0.90;0.90;;;14.90;54.30;;;;;;4987810;28;20242;-69
2023/07/01 00:46:55;;;;;;;1.17;0.93;;;14.90;53.90;;;;;;4991206;28;20193;-66
2023/07/01 00:49:23;;;;;;;1.07;0.97;;;14.80;53.70;;;;;;4992046;28;20178;-65
2023/07/01 00:51:50;;;;;;;1.03;0.90;;;14.70;53.90;;;;;;4987667;28;20740;-68
2023/07/01 00:54:18;;;;;;;0.80;0.80;;;14.80;54.30;;;;;;4992028;28;20232;-68
2023/07/01 00:56:45;;;;;;;0.93;0.80;;;14.90;53.70;;;;;;4987187;28;20182;-69
2023/07/01 00:59:12;;;;;;;0.80;0.80;;;15.00;53.90;;;;;;4988274;28;20346;-68
2023/07/01 01:01:47;;;;;;;0.90;0.90;;;15.20;53.90;;;;;;4973448;28;20185;-68
2023/07/01 01:04:31;;;;;;;0.70;0.70;;;15.30;53.20;;;;;;4989445;28;20240;-69
2023/07/01 01:07:17;;;;;;;0.87;0.87;;;15.50;53.10;;;;;;4991460;28;20857;-69
2023/07/01 01:09:53;;;;;;;0.97;0.90;;;15.70;52.90;;;;;;4986654;28;20342;-68
2023/07/01 01:12:23;;;;;;;0.90;0.80;;;15.70;52.70;;;;;;4983886;28;20180;-68
2023/07/01 01:14:52;;;;;;;1.20;0.80;;;15.80;52.30;;;;;;4991739;28;20189;-68
2023/07/01 01:17:21;;;;;;;1.00;0.90;;;15.90;52.20;;;;;;4987191;28;20182;-70
2023/07/01 01:19:58;;;;;;;0.80;0.80;;;16.00;52.10;;;;;;4990322;28;20649;-69
2023/07/01 01:23:07;;;;;;;0.90;0.90;;;16.10;52.00;;;;;;4989787;28;20186;-68
2023/07/01 01:26:00;;;;;;;1.30;1.00;;;16.20;51.60;;;;;;4958089;28;20279;-67
2023/07/01 01:28:27;;;;;;;1.27;0.97;;;16.30;51.60;;;;;;4981330;28;20280;-71
2023/07/01 01:30:55;;;;;;;1.40;1.07;;;16.20;51.70;;;;;;4990621;28;20793;-67
2023/07/01 01:33:22;;;;;;;1.90;1.27;;;16.30;51.20;;;;;;4986911;28;20274;-69
2023/07/01 01:35:50;;;;;;;3.27;0.87;;;16.50;51.50;;;;;;4990787;28;20186;-69
2023/07/01 01:38:27;;;;;;;1.17;1.07;;;16.50;51.20;;;;;;4990913;28;20197;-72
2023/07/01 01:41:20;;;;;;;1.20;1.00;;;16.40;50.80;;;;;;4990519;28;20202;-72
2023/07/01 01:44:00;;;;;;;1.27;0.90;;;16.30;51.10;;;;;;4985874;28;20222;-72
2023/07/01 01:46:27;;;;;;;1.50;1.00;;;16.40;51.20;;;;;;4989979;28;20225;-73
2023/07/01 01:48:59;;;;;;;1.13;1.03;;;16.70;50.90;;;;;;4992087;28;20211;-73
2023/07/01 01:51:27;;;;;;;1.93;1.07;;;16.80;50.10;;;;;;4990741;28;20187;-74
2023/07/01 01:53:56;;;;;;;1.63;1.37;;;16.70;50.70;;;;;;4991915;28;20193;-74
2023/07/01 01:56:23;;;;;;;1.67;0.80;;;16.70;50.10;;;;;;4991263;28;20645;-71
2023/07/01 01:58:51;;;;;;;1.00;0.90;;;16.90;49.80;;;;;;4991502;28;20587;-72
2023/07/01 02:01:18;;;;;;;1.57;1.00;;;17.10;49.30;;;;;;4989397;28;20600;-68
2023/07/01 02:03:45;;;;;;;2.80;0.97;;;17.20;49.30;;;;;;4991899;28;20190;-67
2023/07/01 02:06:13;;;;;;;1.30;0.93;;;17.10;49.30;;;;;;4988751;28;20191;-67
2023/07/01 02:08:40;;;;;;;1.60;1.20;;;17.30;49.00;;;;;;4988597;28;20216;-67
2023/07/01 02:11:08;;;;;;;1.10;1.00;;;17.60;48.70;;;;;;4989567;28;20549;-67
2023/07/01 02:13:35;;;;;;;1.50;1.00;;;17.70;48.10;;;;;;4985998;28;20183;-68
2023/07/01 02:16:02;;;;;;;1.10;1.00;;;17.90;48.30;;;;;;4987983;28;20173;-67
2023/07/01 02:18:30;;;;;;;0.87;0.80;;;17.90;47.40;;;;;;4988100;28;20675;-67
2023/07/01 02:20:57;;;;;;;3.07;1.20;;;17.60;48.00;;;;;;4989932;28;20178;-66
2023/07/01 02:23:24;;;;;;;2.87;0.80;;;17.40;48.10;;;;;;4990155;28;20189;-67
2023/07/01 02:25:51;;;;;;;1.90;0.90;;;17.30;48.90;;;;;;4989975;28;20221;-67
2023/07/01 02:28:19;;;;;;;0.83;0.83;;;17.50;49.00;;;;;;4992150;28;20489;-67
2023/07/01 02:30:46;;;;;;;1.80;1.00;;;17.70;48.20;;;;;;4987939;28;20188;-67
2023/07/01 02:33:13;;;;;;;2.03;1.40;;;17.90;47.80;;;;;;4987089;28;20189;-68
2023/07/01 02:35:41;;;;;;;1.50;0.90;;;18.00;47.20;;;;;;4988086;28;20193;-75
2023/07/01 02:38:09;;;;;;;2.60;1.53;;;17.90;48.10;;;;;;4986076;28;21552;-67
2023/07/01 02:40:36;;;;;;;2.63;1.17;;;18.30;47.10;;;;;;4989032;28;20193;-68
2023/07/01 02:43:03;;;;;;;2.93;1.20;;;18.40;47.20;;;;;;4971175;28;20182;-68
2023/07/01 02:45:31;;;;;;;1.50;1.10;;;18.50;46.50;;;;;;4994856;28;20583;-67
2023/07/01 02:47:58;;;;;;;1.40;1.10;;;18.20;47.00;;;;;;4987332;28;20186;-66
2023/07/01 02:50:25;;;;;;;1.00;0.90;;;18.10;47.00;;;;;;4992973;28;20193;-68
2023/07/01 02:52:53;;;;;;;0.70;0.70;;;18.30;47.00;;;;;;4993917;28;20178;-67
2023/07/01 02:55:20;;;;;;;0.60;0.60;;;18.20;45.30;;;;;;4992722;28;20236;-66
2023/07/01 02:57:47;;;;;;;0.80;0.60;;;18.30;43.90;;;;;;4994815;28;20185;-68
2023/07/01 03:00:15;;;;;;;0.90;0.60;;;18.50;44.40;;;;;;4993207;28;20244;-68
2023/07/01 03:02:43;;;;;;;0.43;0.43;;;18.60;43.60;;;;;;4992258;28;20177;-67
2023/07/01 03:05:10;;;;;;;0.40;0.40;;;18.50;43.40;;;;;;4987202;28;20252;-65
2023/07/01 03:07:37;;;;;;;0.40;0.40;;;18.50;43.60;;;;;;4994270;28;20629;-68
2023/07/01 03:10:06;;;;;;;0.53;0.53;;;18.40;43.80;;;;;;4994406;28;20208;-67
2023/07/01 03:12:33;;;;;;;0.50;0.50;;;18.30;44.10;;;;;;4994974;28;20185;-68
2023/07/01 03:15:01;;;;;;;0.50;0.50;;;18.30;44.40;;;;;;4989867;28;20221;-66
2023/07/01 03:17:28;;;;;;;2.73;0.50;;;18.30;44.20;;;;;;4989905;28;20185;-66
2023/07/01 03:19:55;;;;;;;0.50;0.50;;;18.00;44.80;;;;;;4990905;28;20189;-66
2023/07/01 03:22:23;;;;;;;2.17;0.60;;;18.00;45.30;;;;;;4989031;28;20193;-67
2023/07/01 03:24:50;;;;;;;0.60;0.50;;;18.30;44.30;;;;;;4992575;28;20226;-66
2023/07/01 03:27:17;;;;;;;0.60;0.60;;;18.30;44.20;;;;;;4991030;28;20541;-67
2023/07/01 03:29:45;;;;;;;0.57;0.57;;;18.60;44.00;;;;;;4989642;28;20202;-69
2023/07/01 03:32:12;;;;;;;1.07;0.60;;;18.60;43.70;;;;;;4990993;28;20268;-68
2023/07/01 03:34:40;;;;;;;0.60;0.60;;;18.60;44.10;;;;;;4989457;28;20265;-67
2023/07/01 03:37:07;;;;;;;0.60;0.60;;;18.70;44.10;;;;;;4989618;28;20194;-68
2023/07/01 03:39:35;;;;;;;0.67;0.60;;;18.80;43.60;;;;;;4992143;28;20189;-68
2023/07/01 03:42:02;;;;;;;0.50;0.50;;;19.30;43.10;;;;;;4991403;28;20270;-68
2023/07/01 03:44:29;;;;;;;0.47;0.47;;;19.70;41.30;;;;;;4991737;28;20586;-66
2023/07/01 03:46:56;;;;;;;0.50;0.50;;;19.60;41.30;;;;;;4989406;28;20557;-68
2023/07/01 03:49:24;;;;;;;6.93;0.67;;;19.40;41.60;;;;;;4990074;28;20194;-67
2023/07/01 03:51:51;;;;;;;0.63;0.50;;;19.50;42.10;;;;;;4991356;28;20187;-65
2023/07/01 03:54:19;;;;;;;0.80;0.60;;;19.40;41.70;;;;;;4992733;28;20232;-68
2023/07/01 03:56:46;;;;;;;0.60;0.60;;;19.50;41.30;;;;;;4988621;28;20197;-66
2023/07/01 03:59:13;;;;;;;0.60;0.60;;;19.50;41.10;;;;;;4988440;28;20178;-67
2023/07/01 04:01:41;;;;;;;0.60;0.60;;;19.50;40.90;;;;;;4992512;28;20193;-67
2023/07/01 04:04:08;;;;;;;0.50;0.50;;;19.70;41.00;;;;;;4992476;28;20206;-67
2023/07/01 04:06:36;;;;;;;0.50;0.50;;;20.00;40.60;;;;;;4988491;28;20193;-66
2023/07/01 04:09:03;;;;;;;2.93;0.60;;;20.30;40.00;;;;;;4990482;28;20224;-69
2023/07/01 04:11:31;;;;;;;0.40;0.40;;;20.10;40.40;;;;;;4991543;28;20261;-67
2023/07/01 04:13:58;;;;;;;0.50;0.50;;;19.80;40.40;;;;;;4991111;28;20186;-69
2023/07/01 04:16:25;;;;;;;1.90;0.50;;;19.70;41.20;;;;;;4990261;28;20214;-66
2023/07/01 04:18:53;;;;;;;0.50;0.50;;;19.80;41.10;;;;;;4988790;28;20196;-67
2023/07/01 04:21:21;;;;;;;0.50;0.50;;;20.20;40.20;;;;;;4991916;28;20668;-66
2023/07/01 04:23:48;;;;;;;0.50;0.50;;;20.30;40.00;;;;;;4991487;28;20281;-68
2023/07/01 04:26:16;;;;;;;0.50;0.50;;;20.00;40.40;;;;;;4990972;28;20268;-66
2023/07/01 04:28:43;;;;;;;0.43;0.43;;;19.80;40.80;;;;;;4990764;28;20182;-67
2023/07/01 04:31:10;;;;;;;0.47;0.47;;;20.00;40.40;;;;;;4992842;28;20186;-68
2023/07/01 04:33:38;;;;;;;0.70;0.70;;;20.40;40.30;;;;;;4988126;28;20179;-68
2023/07/01 04:36:05;;;;;;;0.40;0.40;;;20.90;39.50;;;;;;4993352;28;20636;-69
2023/07/01 04:38:32;;;;;;;1.93;0.50;;;20.60;39.50;;;;;;4990497;28;20233;-68
2023/07/01 04:41:01;;;;;;;0.50;0.50;;;20.50;39.50;;;;;;4993538;28;20240;-67
2023/07/01 04:43:30;;;;;;;0.67;0.60;;;20.70;39.50;;;;;;4989309;28;20238;-68
2023/07/01 04:45:57;;;;;;;0.50;0.50;;;20.60;39.60;;;;;;4993535;28;20583;-69
2023/07/01 04:48:24;;;;;;;0.53;0.53;;;20.40;39.80;;;;;;4993513;28;20182;-67
2023/07/01 04:50:53;;;;;;;1.93;0.50;;;20.30;39.80;;;;;;4992698;28;20182;-67
2023/07/01 04:53:20;;;;;;;0.50;0.50;;;20.30;39.90;;;;;;4988512;28;20208;-66
2023/07/01 04:55:48;;;;;;;0.60;0.60;;;20.30;39.90;;;;;;4992982;28;20581;-66
2023/07/01 04:58:15;;;;;;;0.40;0.40;;;20.30;39.70;;;;;;4992059;28;20197;-67
2023/07/01 05:00:43;;;;;;;0.40;0.40;;;20.20;39.90;;;;;;4991965;28;20236;-67
2023/07/01 05:03:10;;;;;;;0.50;0.40;;;20.30;39.70;;;;;;4991127;28;20649;-67
2023/07/01 05:05:37;;;;;;;0.50;0.50;;;20.50;39.30;;;;;;4992932;28;20237;-67
2023/07/01 05:08:05;;;;;;;0.50;0.50;;;20.40;39.10;;;;;;4990719;28;20731;-66
2023/07/01 05:10:33;;;;;;;0.80;0.50;;;19.90;39.70;;;;;;4990729;28;20277;-70
2023/07/01 05:13:01;;;;;;;1.50;0.57;;;20.20;39.40;;;;;;4991668;28;20232;-67
2023/07/01 05:15:28;;;;;;;0.40;0.40;;;20.20;39.70;;;;;;4990063;28;20205;-67
2023/07/01 05:17:55;;;;;;;0.43;0.43;;;20.40;39.60;;;;;;4991316;28;20189;-66
2023/07/01 05:20:23;;;;;;;0.60;0.40;;;20.30;39.70;;;;;;4991981;28;20228;-67
2023/07/01 05:22:50;;;;;;;0.50;0.50;;;20.60;39.00;;;;;;4993407;28;20265;-66
2023/07/01 05:25:17;;;;;;;0.50;0.50;;;20.50;39.70;;;;;;4992265;28;20230;-66
2023/07/01 05:27:45;;;;;;;0.50;0.50;;;20.80;39.10;;;;;;4991154;28;20190;-67
2023/07/01 05:30:12;;;;;;;0.47;0.47;;;21.50;37.90;;;;;;4988194;28;20185;-67
2023/07/01 05:32:39;;;;;;;0.50;0.50;;;21.30;38.10;;;;;;4991920;28;20178;-66
2023/07/01 05:35:09;;;;;;;1.90;0.50;;;20.70;38.90;;;;;;4991011;28;20276;-66
2023/07/01 05:37:36;;;;;;;0.50;0.50;;;20.60;39.10;;;;;;4984856;28;20700;-66
2023/07/01 05:40:04;;;;;;;0.77;0.73;;;20.70;38.90;;;;;;4989825;28;20181;-66
2023/07/01 05:42:31;;;;;;;1.83;0.50;;;20.90;39.20;;;;;;4989505;28;20256;-67
2023/07/01 05:44:59;;;;;;;1.20;0.57;;;20.80;38.20;;;;;;4990275;28;20237;-67
2023/07/01 05:47:26;;;;;;;0.50;0.50;;;20.30;38.10;;;;;;4991621;28;20220;-67
2023/07/01 05:49:53;;;;;;;0.57;0.40;;;20.60;37.80;;;;;;4988387;28;20636;-67
2023/07/01 05:52:21;;;;;;;0.60;0.60;;;20.40;38.00;;;;;;4991956;28;20240;-68
2023/07/01 05:54:48;;;;;;;0.40;0.40;;;20.00;39.20;;;;;;4991309;28;20186;-67
2023/07/01 05:57:15;;;;;;;0.60;0.47;;;19.90;40.00;;;;;;4988974;28;20695;-67
2023/07/01 05:59:43;;;;;;;0.60;0.50;;;19.90;39.70;;;;;;4988339;28;20205;-67
2023/07/01 06:02:10;;;;;;;0.60;0.60;;;20.10;39.40;;;;;;4990505;28;20678;-67
2023/07/01 06:04:37;;;;;;;1.03;0.70;;;20.10;39.10;;;;;;4990803;28;20588;-67
2023/07/01 06:07:05;;;;;;;0.53;0.53;;;19.90;39.50;;;;;;4991288;28;20185;-68
2023/07/01 06:09:32;;;;;;;0.40;0.40;;;19.20;40.30;;;;;;4985395;28;20194;-69
2023/07/01 06:11:59;;;;;;;0.60;0.60;;;18.70;41.80;;;;;;4988280;28;20185;-68
2023/07/01 06:14:27;;;;;;;0.67;0.60;;;18.40;42.20;;;;;;4990745;28;20722;-67
2023/07/01 06:16:54;;;;;;;0.57;0.57;;;18.10;43.10;;;;;;4990969;28;20196;-67
2023/07/01 06:19:21;;;;;;;1.47;0.60;;;17.80;43.60;;;;;;4988086;28;20197;-66
2023/07/01 06:21:49;;;;;;;0.50;0.50;;;17.70;44.20;;;;;;4990928;28;20261;-69
2023/07/01 06:24:16;;;;;;;0.83;0.80;;;17.60;44.30;;;;;;4987699;28;20225;-67
2023/07/01 06:26:43;;;;;;;0.80;0.80;;;17.50;44.80;;;;;;4989367;28;20274;-68
2023/07/01 06:29:11;;;;;;;0.80;0.80;;;17.30;45.10;;;;;;4991330;28;20643;-69
2023/07/01 06:31:38;;;;;;;0.83;0.80;;;17.20;45.20;;;;;;4989844;28;20201;-67
2023/07/01 06:34:13;;;;;;;1.03;0.93;;;17.20;45.60;;;;;;4989681;28;20281;-67
2023/07/01 06:36:41;;;;;;;0.90;0.90;;;17.10;46.10;;;;;;4990950;28;20246;-66
2023/07/01 06:39:08;;;;;;;0.93;0.93;;;17.00;46.10;;;;;;4986195;28;20553;-66
2023/07/01 06:41:36;;;;;;;1.33;0.80;;;16.90;46.50;;;;;;4990572;28;20210;-68
2023/07/01 06:44:03;;;;;;;0.70;0.70;;;16.80;47.00;;;;;;4987863;28;20250;-66
2023/07/01 06:46:31;;;;;;;1.47;0.90;;;16.80;47.20;;;;;;4988309;28;20203;-66
2023/07/01 06:48:58;;;;;;;4.67;1.00;;;16.70;47.70;;;;;;4988570;28;20181;-65
2023/07/01 06:51:25;;;;;;;1.20;1.10;;;16.70;48.20;;;;;;4990698;28;20667;-67
2023/07/01 06:53:53;;;;;;;1.27;1.00;;;16.60;48.50;;;;;;4987720;28;20208;-67
2023/07/01 06:56:20;;;;;;;1.30;1.20;;;16.40;49.00;;;;;;4991837;28;20216;-66
2023/07/01 06:58:47;;;;;;;2.10;1.30;;;16.30;49.60;;;;;;4989793;28;20176;-66
2023/07/01 07:01:15;;;;;;;1.87;1.20;;;16.20;50.20;;;;;;4992296;28;20548;-66
2023/07/01 07:03:42;;;;;;;1.77;1.30;;;16.20;50.80;;;;;;4970520;28;20526;-66
2023/07/01 07:06:09;;;;;;;3.00;1.60;;;16.20;51.00;;;;;;4991826;28;20231;-67
2023/07/01 07:08:37;;;;;;;1.80;1.50;;;16.10;51.50;;;;;;4986201;28;20283;-67
2023/07/01 07:11:04;;;;;;;3.67;1.53;;;16.00;51.50;;;;;;4991760;28;20670;-66
2023/07/01 07:13:31;;;;;;;1.90;1.50;;;16.00;51.80;;;;;;4987518;28;20266;-67
2023/07/01 07:15:59;;;;;;;2.00;1.80;;;16.00;52.00;;;;;;4991605;28;20179;-66
2023/07/01 07:18:26;;;;;;;2.30;2.10;;;15.90;52.20;;;;;;4988854;28;20186;-66
2023/07/01 07:20:53;;;;;;;5.13;1.90;;;15.90;52.50;;;;;;4991651;28;20194;-66
2023/07/01 07:23:21;;;;;;;4.13;2.03;;;15.80;52.70;;;;;;4991080;28;20190;-67
2023/07/01 07:25:48;;;;;;;2.33;1.73;;;15.80;53.00;;;;;;4987816;28;20226;-67
2023/07/01 07:28:16;;;;;;;2.23;1.80;;;15.70;53.10;;;;;;4989092;28;20206;-66
2023/07/01 07:30:44;;;;;;;2.00;1.57;;;15.70;53.10;;;;;;4992052;28;20184;-66
2023/07/01 07:33:11;;;;;;;3.63;1.90;;;15.60;53.30;;;;;;4993234;28;20186;-66
2023/07/01 07:35:38;;;;;;;2.67;1.90;;;15.60;53.50;;;;;;4988735;28;20214;-66
2023/07/01 07:38:06;;;;;;;3.03;2.00;;;15.50;53.60;;;;;;4993833;28;20652;-66
2023/07/01 07:40:33;;;;;;;2.63;1.77;;;15.40;54.00;;;;;;4991483;28;20241;-66
2023/07/01 07:43:12;;;;;;;2.20;2.00;;;15.30;54.20;;;;;;4994437;28;20193;-68
2023/07/01 07:45:39;;;;;;;3.83;1.97;;;15.20;54.30;;;;;;4991945;28;20278;-65
2023/07/01 07:48:07;;;;;;;2.53;2.00;;;15.20;54.10;;;;;;4994357;28;20232;-66
2023/07/01 07:50:35;;;;;;;3.00;2.10;;;15.20;54.00;;;;;;4992634;28;20546;-65
2023/07/01 07:53:03;;;;;;;3.50;2.10;;;15.20;54.30;;;;;;4988635;28;20188;-66
2023/07/01 07:55:33;;;;;;;3.60;2.00;;;15.10;54.20;;;;;;4991050;28;20188;-65
2023/07/01 07:58:03;;;;;;;3.30;2.33;;;15.00;54.30;;;;;;4994619;28;20198;-66
2023/07/01 08:00:31;;;;;;;3.67;2.47;;;15.00;54.30;;;;;;4990872;28;20192;-66
2023/07/01 08:02:58;;;;;;;4.30;2.90;;;14.90;54.60;;;;;;4990622;28;20193;-67
2023/07/01 08:05:26;;;;;;;3.23;2.60;;;14.80;54.90;;;;;;4992128;28;20238;-66
2023/07/01 08:07:54;;;;;;;3.77;2.80;;;14.80;55.30;;;;;;4993771;28;20200;-66
2023/07/01 08:10:21;;;;;;;3.83;2.83;;;14.70;55.50;;;;;;4992484;28;20239;-66
2023/07/01 08:12:48;;;;;;;2.90;2.60;;;14.70;55.60;;;;;;4994473;28;20535;-67
2023/07/01 08:15:17;;;;;;;4.33;3.27;;;14.60;55.70;;;;;;4990361;28;20191;-66
2023/07/01 08:17:44;;;;;;;5.17;4.50;;;14.50;56.00;;;;;;4992994;28;20217;-67
2023/07/01 08:20:12;;;;;;;6.13;4.60;;;14.50;56.10;;;;;;4990840;28;20520;-66
2023/07/01 08:22:40;;;;;;;4.53;3.57;;;14.50;55.80;;;;;;4990208;28;20214;-67
2023/07/01 08:25:07;;;;;;;5.10;2.90;;;14.50;56.00;;;;;;4990910;28;20269;-67
2023/07/01 08:27:35;;;;;;;4.07;3.30;;;14.50;55.50;;;;;;4989357;28;20193;-66
2023/07/01 08:30:02;;;;;;;4.37;3.30;;;14.50;55.20;;;;;;4974027;28;20265;-67
2023/07/01 08:32:30;;;;;;;4.00;3.07;;;14.50;55.00;;;;;;4991718;28;20234;-66
2023/07/01 08:34:57;;;;;;;3.87;3.10;;;14.50;54.90;;;;;;4991088;28;20225;-65
2023/07/01 08:37:26;;;;;;;4.40;3.17;;;14.50;55.00;;;;;;4993868;28;20641;-67
2023/07/01 08:39:53;;;;;;;3.50;3.00;;;14.40;55.20;;;;;;4991928;28;20656;-66
2023/07/01 08:42:26;;;;;;;8.87;3.50;;;14.30;55.30;;;;;;4988894;28;20653;-66
2023/07/01 08:44:54;;;;;;;6.87;3.27;;;14.30;55.50;;;;;;4989939;28;20296;-65
2023/07/01 08:47:24;;;;;;;4.70;3.43;;;14.20;56.00;;;;;;4991303;28;20178;-66
2023/07/01 08:49:55;;;;;;;8.73;3.50;;;14.10;56.40;;;;;;4991759;28;20221;-67
2023/07/01 08:52:24;;;;;;;5.37;3.30;;;14.00;56.80;;;;;;4993262;28;20197;-66
2023/07/01 08:54:53;;;;;;;4.03;3.13;;;13.90;57.00;;;;;;4991836;28;20293;-65
2023/07/01 08:57:21;;;;;;;5.13;3.60;;;13.80;57.20;;;;;;4992396;28;20184;-68
2023/07/01 08:59:48;;;;;;;4.83;3.20;;;13.80;56.70;;;;;;4992200;28;20522;-68
2023/07/01 09:02:16;;;;;;;6.17;2.70;;;13.80;56.80;;;;;;4992307;28;20200;-66
2023/07/01 09:04:44;;;;;;;4.13;2.90;;;13.80;56.80;;;;;;4991599;28;20225;-66
2023/07/01 09:07:11;;;;;;;5.13;2.60;;;13.70;56.60;;;;;;4992479;28;20208;-67
2023/07/01 09:09:39;;;;;;;4.33;2.60;;;13.70;56.80;;;;;;4991487;28;20595;-67
2023/07/01 09:12:07;;;;;;;4.20;2.70;;;13.60;57.00;;;;;;4973720;28;20179;-67
2023/07/01 09:15:02;;;;;;;3.30;2.40;;;13.60;57.00;;;;;;4991836;28;20186;-68
2023/07/01 09:17:42;;;;;;;3.20;2.40;;;13.50;56.90;;;;;;4993377;28;20535;-68
2023/07/01 09:20:12;;;;;;;5.43;2.60;;;13.50;57.10;;;;;;4987983;28;20197;-68
2023/07/01 09:22:43;;;;;;;4.00;3.20;;;13.40;57.40;;;;;;4993058;28;20190;-66
2023/07/01 09:25:26;;;;;;;4.43;2.90;;;13.40;57.70;;;;;;4991409;28;20225;-67
2023/07/01 09:27:54;;;;;;;5.10;3.27;;;13.30;57.80;;;;;;4988334;28;20186;-67
2023/07/01 09:30:21;;;;;;;3.83;2.67;;;13.30;58.00;;;;;;4988407;28;20271;-66
2023/07/01 09:32:49;;;;;;;5.17;3.30;;;13.30;58.00;;;;;;4991029;28;20181;-67
2023/07/01 09:35:16;;;;;;;4.50;3.27;;;13.20;58.20;;;;;;4990225;28;20715;-67
2023/07/01 09:37:44;;;;;;;4.13;3.27;;;13.20;58.30;;;;;;4990328;28;20193;-67
2023/07/01 09:40:24;;;;;;;4.73;3.60;;;13.20;58.40;;;;;;4990604;28;20193;-70
2023/07/01 09:42:57;;;;;;;7.60;4.10;;;13.10;58.50;;;;;;4992462;28;20265;-68
2023/07/01 09:45:24;;;;;;;5.40;3.33;;;13.10;58.80;;;;;;4989832;28;20206;-68
2023/07/01 09:47:53;;;;;;;5.63;3.63;;;13.00;59.00;;;;;;4989096;28;20280;-68
2023/07/01 09:50:29;;;;;;;7.00;3.23;;;13.00;58.90;;;;;;4990005;28;20187;-70
2023/07/01 09:52:57;;;;;;;4.80;3.47;;;13.00;59.00;;;;;;4988462;28;20212;-67
2023/07/01 09:55:25;;;;;;;3.40;2.90;;;12.90;59.30;;;;;;4991291;28;20592;-68
2023/07/01 09:57:53;;;;;;;9.50;3.43;;;12.80;59.50;;;;;;4988770;28;20189;-70
2023/07/01 10:00:22;;;;;;;4.13;2.87;;;12.80;59.40;;;;;;4989639;28;20183;-66
2023/07/01 10:02:49;;;;;;;3.17;2.50;;;12.80;59.80;;;;;;4989973;28;20189;-69
2023/07/01 10:05:16;;;;;;;3.33;2.90;;;12.70;60.00;;;;;;4989507;28;20218;-66
2023/07/01 10:07:46;;;;;;;3.30;2.47;;;12.80;59.60;;;;;;4989013;28;20651;-69
2023/07/01 10:10:16;;;;;;;3.37;1.90;;;12.70;59.60;;;;;;4990372;28;20190;-69
2023/07/01 10:12:45;;;;;;;5.00;2.53;;;12.80;59.70;;;;;;4991051;28;20248;-67
2023/07/01 10:15:17;;;;;;;2.30;2.00;;;12.70;59.40;;;;;;4990035;28;20201;-68
2023/07/01 10:17:48;;;;;;;3.73;1.93;;;12.70;59.30;;;;;;4986400;28;20661;-66
2023/07/01 10:20:25;;;;;;;4.60;2.00;;;12.80;59.10;;;;;;4986140;28;20272;-66
2023/07/01 10:22:59;;;;;;;1.97;1.83;;;12.70;59.20;;;;;;4987729;28;20182;-66
2023/07/01 10:25:44;;;;;;;1.93;1.80;;;12.70;59.10;;;;;;4989597;28;20673;-67
2023/07/01 10:28:13;;;;;;;4.20;2.13;;;12.70;59.60;;;;;;4989691;28;20548;-68
2023/07/01 10:30:46;;;;;;;2.50;2.00;;;12.70;59.70;;;;;;4986097;28;20202;-67
2023/07/01 10:33:39;;;;;;;1.70;1.60;;;12.60;59.80;;;;;;4991255;28;20684;-67
2023/07/01 10:36:07;;;;;;;2.80;2.00;;;12.60;59.60;;;;;;4988322;28;20256;-66
2023/07/01 10:38:36;;;;;;;2.37;1.60;;;12.60;59.90;;;;;;4990010;28;20410;-66
2023/07/01 10:41:04;;;;;;;1.77;1.67;;;12.50;60.40;;;;;;4988588;28;20526;-64
2023/07/01 10:43:33;;;;;;;2.73;1.73;;;12.50;60.50;;;;;;4989289;28;20232;-69
2023/07/01 10:46:11;;;;;;;3.10;1.70;;;12.50;60.60;;;;;;4989556;28;20214;-66
2023/07/01 10:48:39;;;;;;;2.30;2.10;;;12.40;60.80;;;;;;4990153;28;20244;-65
2023/07/01 10:51:11;;;;;;;2.60;2.10;;;12.40;60.60;;;;;;4991285;28;20190;-66
2023/07/01 10:53:59;;;;;;;2.40;1.97;;;12.30;60.80;;;;;;4991781;28;20185;-68
2023/07/01 10:56:30;;;;;;;2.20;1.80;;;12.30;60.60;;;;;;4985129;28;20248;-65
2023/07/01 10:59:23;;;;;;;2.17;1.97;;;12.30;60.50;;;;;;4986391;28;20182;-66
2023/07/01 11:01:52;;;;;;;1.63;1.53;;;12.30;60.30;;;;;;4989323;28;20667;-68
2023/07/01 11:04:20;;;;;;;1.50;1.40;;;12.40;59.80;;;;;;4986737;28;20210;-68
2023/07/01 11:06:52;;;;;;;1.83;1.33;;;12.50;59.60;;;;;;4992932;28;20190;-68
2023/07/01 11:09:32;;;;;;;2.30;1.50;;;12.50;59.60;;;;;;4992937;28;20182;-67
2023/07/01 11:12:03;;;;;;;1.40;1.30;;;12.50;59.50;;;;;;4992391;28;20261;-68
2023/07/01 11:14:41;;;;;;;1.60;1.50;;;12.50;59.10;;;;;;4993002;28;20252;-67
2023/07/01 11:17:11;;;;;;;1.50;1.40;;;12.60;59.00;;;;;;4991262;28;20198;-65
2023/07/01 11:19:39;;;;;;;3.37;1.20;;;12.60;59.00;;;;;;4992816;28;20192;-66
2023/07/01 11:22:11;;;;;;;1.67;1.20;;;12.70;58.90;;;;;;4990472;28;20209;-67
2023/07/01 11:24:39;;;;;;;1.33;1.23;;;12.70;58.80;;;;;;4991587;28;20205;-65
2023/07/01 11:27:08;;;;;;;2.83;1.27;;;12.70;58.80;;;;;;4992035;28;20174;-67
2023/07/01 11:29:37;;;;;;;1.63;1.20;;;12.80;58.50;;;;;;4986035;28;20200;-67
2023/07/01 11:32:07;;;;;;;1.33;1.23;;;12.80;58.30;;;;;;4987273;28;20185;-68
2023/07/01 11:34:34;;;;;;;1.10;1.00;;;12.80;58.20;;;;;;4990361;28;20628;-68
2023/07/01 11:37:01;;;;;;;1.03;1.00;;;12.80;58.10;;;;;;4991854;28;20262;-69
2023/07/01 11:39:29;;;;;;;1.00;1.00;;;12.80;58.00;;;;;;4975705;28;20240;-66
2023/07/01 11:42:01;;;;;;;1.50;1.30;;;12.80;57.90;;;;;;4991167;28;20190;-67
2023/07/01 11:44:33;;;;;;;1.10;1.10;;;12.80;58.00;;;;;;4994231;28;20222;-66
2023/07/01 11:47:00;;;;;;;1.00;1.00;;;12.90;58.10;;;;;;4991300;28;20197;-66
2023/07/01 11:49:31;;;;;;;1.57;1.10;;;12.90;58.00;;;;;;4987684;28;20660;-68
2023/07/01 11:52:03;;;;;;;0.90;0.90;;;12.90;58.10;;;;;;4990346;28;20673;-65
2023/07/01 11:54:44;;;;;;;1.43;1.00;;;12.90;57.90;;;;;;4992921;28;20178;-68
2023/07/01 11:57:14;;;;;;;1.57;0.90;;;12.90;58.10;;;;;;4990368;28;20193;-68
2023/07/01 11:59:46;;;;;;;2.70;1.20;;;12.80;58.00;;;;;;4993885;28;20196;-66
2023/07/01 12:02:13;;;;;;;1.60;1.30;;;12.90;58.20;;;;;;4994154;28;20257;-66
2023/07/01 12:04:41;;;;;;;1.20;1.10;;;12.90;58.20;;;;;;4991907;28;20210;-67
2023/07/01 12:07:16;;;;;;;1.43;1.07;;;12.90;58.20;;;;;;4991515;28;20540;-66
2023/07/01 12:09:45;;;;;;;1.30;1.20;;;12.90;58.30;;;;;;4992859;28;20232;-66
2023/07/01 12:12:19;;;;;;;1.20;1.10;;;12.90;58.30;;;;;;4991361;28;20257;-66
2023/07/01 12:14:46;;;;;;;1.67;1.37;;;12.80;58.30;;;;;;4993164;28;20189;-66
2023/07/01 12:17:30;;;;;;;0.90;0.90;;;12.90;58.30;;;;;;4989391;28;20246;-66
2023/07/01 12:19:58;;;;;;;1.00;0.90;;;12.90;58.50;;;;;;4988402;28;20186;-66
2023/07/01 12:22:27;;;;;;;0.90;0.90;;;12.90;58.40;;;;;;4988332;28;20213;-66
2023/07/01 12:24:57;;;;;;;1.67;1.10;;;12.90;58.30;;;;;;4992774;28;20222;-65
2023/07/01 12:27:25;;;;;;;1.00;0.90;;;12.90;58.40;;;;;;4991440;28;20539;-67
2023/07/01 12:29:52;;;;;;;1.00;0.90;;;12.90;58.50;;;;;;4993120;28;20191;-65
2023/07/01 12:32:20;;;;;;;1.50;1.10;;;12.90;58.50;;;;;;4989679;28;20213;-67
2023/07/01 12:34:47;;;;;;;1.00;1.00;;;12.80;58.30;;;;;;4992827;28;20185;-65
2023/07/01 12:37:15;;;;;;;1.10;1.00;;;12.90;58.50;;;;;;4992514;28;20198;-66
2023/07/01 12:39:44;;;;;;;1.30;1.10;;;12.90;58.60;;;;;;4993552;28;20182;-66
2023/07/01 12:42:13;;;;;;;1.20;1.10;;;12.90;58.60;;;;;;4990629;28;20203;-65
2023/07/01 12:44:44;;;;;;;1.63;1.17;;;12.90;58.60;;;;;;4993033;28;20320;-67
2023/07/01 12:47:11;;;;;;;1.27;1.00;;;12.90;58.70;;;;;;4992121;28;20244;-65
2023/07/01 12:49:41;;;;;;;1.00;1.00;;;12.90;58.80;;;;;;4972809;28;20201;-66
2023/07/01 12:52:09;;;;;;;1.10;1.00;;;12.90;59.20;;;;;;4988234;28;20677;-66
2023/07/01 12:54:36;;;;;;;1.23;1.13;;;12.80;59.00;;;;;;4988771;28;20281;-65
2023/07/01 12:57:03;;;;;;;1.00;1.00;;;12.80;59.10;;;;;;4991500;28;20572;-66